createdAt,value
2018-11-22T00:01:55.483Z,22.30
2018-11-22T00:04:43.962Z,22.40
2018-11-22T00:07:32.526Z,23.87
2018-11-22T00:10:21.360Z,23.57
2018-11-22T00:13:09.701Z,25.37
2018-11-22T00:15:58.160Z,23.60
2018-11-22T00:18:46.607Z,25.27
2018-11-22T00:21:35.195Z,24.93
2018-11-22T00:24:23.402Z,26.90
2018-11-22T00:27:11.818Z,26.60
2018-11-22T00:30:00.161Z,25.37
2018-11-22T00:32:48.616Z,26.17
2018-11-22T00:35:36.941Z,26.93
2018-11-22T00:38:25.380Z,27.60
2018-11-22T00:40:54.294Z,27.70
2018-11-22T00:43:35.943Z,26.87
2018-11-22T00:46:17.844Z,27.13
2018-11-22T00:48:58.920Z,27.37
2018-11-22T00:51:40.746Z,28.20
2018-11-22T00:54:21.829Z,27.37
2018-11-22T00:57:03.522Z,26.73
2018-11-22T00:59:45.127Z,26.87
2018-11-22T01:02:14.200Z,27.80
2018-11-22T01:05:02.628Z,27.17
2018-11-22T01:07:50.985Z,27.87
2018-11-22T01:10:39.392Z,27.77
2018-11-22T01:13:27.718Z,27.27
2018-11-22T01:16:16.290Z,28.07
2018-11-22T01:19:04.985Z,26.30
2018-11-22T01:21:34.305Z,27.37
2018-11-22T01:24:22.702Z,26.33
2018-11-22T01:27:11.070Z,26.83
2018-11-22T01:29:59.403Z,27.30
2018-11-22T01:32:48.838Z,26.83
2018-11-22T01:35:37.204Z,26.63
2018-11-22T01:38:25.521Z,26.63
2018-11-22T01:41:13.836Z,25.27
2018-11-22T01:44:02.303Z,27.00
2018-11-22T01:46:50.637Z,26.30
2018-11-22T01:49:39.055Z,26.67
2018-11-22T01:52:27.298Z,27.07
2018-11-22T01:55:34.717Z,28.20
2018-11-22T01:58:23.099Z,25.57
2018-11-22T02:01:11.443Z,27.10
2018-11-22T02:04:00.043Z,27.63
2018-11-22T02:06:48.441Z,27.20
2018-11-22T02:09:36.763Z,26.90
2018-11-22T02:12:25.134Z,27.07
2018-11-22T02:19:17.133Z,25.80
2018-11-22T02:22:05.492Z,27.57
2018-11-22T02:24:53.932Z,27.50
2018-11-22T02:27:42.503Z,27.63
2018-11-22T02:30:16.641Z,27.20
2018-11-22T02:33:05.216Z,26.97
2018-11-22T02:35:53.640Z,28.27
2018-11-22T02:38:42.022Z,27.17
2018-11-22T02:41:11.124Z,27.60
2018-11-22T02:47:12.556Z,27.53
2018-11-22T02:50:00.976Z,29.53
2018-11-22T02:52:49.757Z,28.10
2018-11-22T02:55:38.082Z,28.77
2018-11-22T02:58:26.418Z,28.50
2018-11-22T03:01:14.849Z,26.97
2018-11-22T03:04:03.279Z,27.37
2018-11-22T03:06:51.636Z,27.17
2018-11-22T03:09:39.937Z,27.53
2018-11-22T03:12:28.403Z,27.47
2018-11-22T03:15:16.769Z,27.13
2018-11-22T03:18:05.361Z,26.47
2018-11-22T03:20:53.709Z,27.37
2018-11-22T03:23:42.104Z,27.20
2018-11-22T03:26:30.419Z,27.37
2018-11-22T03:28:59.951Z,28.30
2018-11-22T03:31:48.303Z,27.50
2018-11-22T03:34:36.643Z,26.90
2018-11-22T03:37:25.038Z,26.97
2018-11-22T03:40:17.638Z,27.73
2018-11-22T03:42:59.457Z,26.07
2018-11-22T03:45:40.251Z,27.23
2018-11-22T03:48:22.035Z,27.47
2018-11-22T03:51:03.263Z,25.97
2018-11-22T03:53:44.815Z,25.40
2018-11-22T03:56:25.797Z,26.07
2018-11-22T03:58:55.091Z,26.77
2018-11-22T04:01:43.541Z,26.80
2018-11-22T04:04:32.148Z,25.37
2018-11-22T04:07:20.508Z,26.20
2018-11-22T04:10:09.823Z,25.97
2018-11-22T04:12:58.232Z,25.67
2018-11-22T04:15:46.690Z,25.53
2018-11-22T04:18:35.098Z,25.43
2018-11-22T04:21:23.445Z,24.83
2018-11-22T04:24:12.060Z,25.40
2018-11-22T04:27:01.098Z,24.73
2018-11-22T04:29:48.886Z,26.93
2018-11-22T04:32:37.185Z,25.77
2018-11-22T04:35:25.853Z,26.20
2018-11-22T04:37:54.883Z,24.70
2018-11-22T04:40:43.589Z,25.47
2018-11-22T04:43:12.645Z,24.57
2018-11-22T04:46:01.167Z,24.30
2018-11-22T04:48:49.567Z,23.23
2018-11-22T04:51:37.994Z,24.23
2018-11-22T04:54:26.411Z,23.80
2018-11-22T04:57:14.722Z,24.53
2018-11-22T05:00:03.294Z,24.87
2018-11-22T05:02:32.433Z,24.47
2018-11-22T05:05:22.169Z,24.27
2018-11-22T05:08:10.517Z,23.20
2018-11-22T05:10:39.507Z,24.07
2018-11-22T05:13:27.887Z,25.17
2018-11-22T05:16:16.259Z,24.03
2018-11-22T05:19:04.602Z,23.90
2018-11-22T05:21:53.023Z,24.50
2018-11-22T05:24:41.365Z,24.30
2018-11-22T05:27:29.764Z,23.80
2018-11-22T05:30:19.829Z,24.47
2018-11-22T05:32:48.952Z,24.80
2018-11-22T05:35:37.289Z,23.97
2018-11-22T05:38:25.735Z,25.20
2018-11-22T05:41:14.108Z,24.43
2018-11-22T05:43:43.381Z,25.83
2018-11-22T05:46:31.821Z,26.03
2018-11-22T05:49:00.871Z,25.27
2018-11-22T05:51:29.867Z,24.90
2018-11-22T05:54:18.301Z,26.37
2018-11-22T05:57:06.732Z,26.60
2018-11-22T05:59:35.748Z,26.87
2018-11-22T06:02:24.406Z,25.83
2018-11-22T06:05:13.372Z,27.07
2018-11-22T06:08:01.936Z,26.93
2018-11-22T06:10:32.571Z,27.10
2018-11-22T06:13:20.968Z,26.90
2018-11-22T06:16:09.311Z,27.00
2018-11-22T06:18:38.265Z,27.40
2018-11-22T06:21:07.361Z,28.27
2018-11-22T06:23:55.803Z,27.10
2018-11-22T06:26:44.162Z,26.60
2018-11-22T06:29:32.600Z,26.83
2018-11-22T06:32:21.133Z,27.93
2018-11-22T06:35:09.868Z,25.13
2018-11-22T06:37:39.071Z,27.27
2018-11-22T06:40:27.409Z,27.40
2018-11-22T06:43:08.687Z,26.00
2018-11-22T06:45:49.515Z,28.10
2018-11-22T06:48:18.780Z,29.07
2018-11-22T06:51:07.125Z,27.43
2018-11-22T06:53:55.449Z,27.87
2018-11-22T06:56:43.784Z,28.20
2018-11-22T06:59:13.047Z,27.97
2018-11-22T07:04:55.835Z,27.87
2018-11-22T07:07:44.260Z,27.67
2018-11-22T07:10:32.639Z,28.03
2018-11-22T07:13:02.146Z,26.83
2018-11-22T07:15:50.471Z,27.50
2018-11-22T07:18:38.795Z,26.80
2018-11-22T07:21:27.231Z,26.63
2018-11-22T07:24:15.722Z,26.27
2018-11-22T07:27:04.090Z,25.47
2018-11-22T07:29:52.452Z,25.50
2018-11-22T07:32:40.939Z,25.37
2018-11-22T07:35:31.016Z,24.17
2018-11-22T07:38:19.440Z,25.13
2018-11-22T07:40:48.474Z,26.07
2018-11-22T07:47:41.277Z,24.27
2018-11-22T07:52:59.401Z,23.70
2018-11-22T07:55:47.754Z,23.53
2018-11-22T07:58:36.119Z,24.20
2018-11-22T08:01:24.437Z,23.23
2018-11-22T08:03:53.402Z,23.93
2018-11-22T08:06:41.770Z,23.73
2018-11-22T08:09:30.380Z,23.57
2018-11-22T08:12:25.768Z,22.40
2018-11-22T08:14:47.867Z,22.27
2018-11-22T08:17:16.858Z,23.07
2018-11-22T08:19:45.830Z,22.90
2018-11-22T08:22:34.138Z,22.10
2018-11-22T08:25:03.617Z,24.30
2018-11-22T08:27:52.464Z,22.43
2018-11-22T08:30:22.344Z,23.63
2018-11-22T08:33:10.654Z,23.33
2018-11-22T08:35:39.608Z,24.20
2018-11-22T08:38:27.932Z,22.80
2018-11-22T08:41:16.299Z,21.70
2018-11-22T08:43:45.283Z,23.10
2018-11-22T08:46:33.680Z,22.00
2018-11-22T08:49:21.981Z,22.27
2018-11-22T08:52:10.378Z,22.03
2018-11-22T08:54:58.713Z,22.80
2018-11-22T08:57:47.115Z,22.07
2018-11-22T09:00:17.411Z,22.13
2018-11-22T09:03:05.778Z,22.23
2018-11-22T09:05:54.126Z,21.47
2018-11-22T09:08:23.109Z,22.13
2018-11-22T09:14:00.937Z,22.27
2018-11-22T09:16:29.958Z,22.03
2018-11-22T09:22:48.826Z,21.77
2018-11-22T09:25:37.204Z,21.60
2018-11-22T09:28:25.640Z,23.27
2018-11-22T09:34:44.568Z,22.23
2018-11-22T09:37:32.968Z,22.53
2018-11-22T09:40:22.955Z,21.70
2018-11-22T09:43:04.661Z,20.33
2018-11-22T09:45:45.642Z,20.93
2018-11-22T09:48:27.422Z,21.07
2018-11-22T09:51:08.655Z,21.90
2018-11-22T09:53:49.984Z,21.10
2018-11-22T09:56:31.425Z,23.40
2018-11-22T09:59:12.467Z,22.17
2018-11-22T10:01:41.501Z,22.43
2018-11-22T10:04:10.683Z,21.43
2018-11-22T10:06:39.777Z,21.03
2018-11-22T10:12:40.158Z,21.73
2018-11-22T10:15:30.188Z,21.20
2018-11-22T10:18:18.769Z,21.63
2018-11-22T10:21:07.138Z,21.73
2018-11-22T10:23:55.683Z,22.07
2018-11-22T10:26:43.460Z,20.10
2018-11-22T10:29:31.906Z,20.77
2018-11-22T10:32:20.172Z,20.17
2018-11-22T10:35:09.186Z,20.13
2018-11-22T10:37:38.184Z,18.33
2018-11-22T10:40:26.810Z,18.87
2018-11-22T10:43:15.236Z,19.57
2018-11-22T10:46:03.590Z,19.33
2018-11-22T10:48:52.021Z,17.77
2018-11-22T10:51:40.361Z,17.93
2018-11-22T10:54:28.765Z,16.70
2018-11-22T10:57:17.080Z,17.87
2018-11-22T11:00:07.910Z,19.13
2018-11-22T11:02:55.935Z,17.97
2018-11-22T11:06:03.383Z,18.10
2018-11-22T11:08:51.731Z,18.30
2018-11-22T11:11:40.111Z,18.97
2018-11-22T11:14:09.162Z,17.50
2018-11-22T11:16:57.605Z,18.87
2018-11-22T11:19:45.954Z,18.47
2018-11-22T11:22:34.345Z,17.60
2018-11-22T11:25:22.756Z,17.10
2018-11-22T11:28:11.128Z,17.30
2018-11-22T11:30:40.102Z,18.10
2018-11-22T11:33:09.582Z,17.77
2018-11-22T11:35:57.967Z,18.00
2018-11-22T11:38:45.461Z,17.43
2018-11-22T11:41:33.854Z,17.17
2018-11-22T11:44:22.484Z,17.43
2018-11-22T11:47:10.833Z,17.73
2018-11-22T11:49:59.728Z,18.00
2018-11-22T11:52:48.056Z,18.47
2018-11-22T11:55:36.873Z,18.27
2018-11-22T11:58:25.250Z,17.63
2018-11-22T12:01:14.197Z,18.37
2018-11-22T12:03:43.302Z,18.60
2018-11-22T12:06:31.816Z,18.30
2018-11-22T12:09:20.103Z,17.70
2018-11-22T12:12:08.469Z,18.07
2018-11-22T12:19:00.669Z,17.30
2018-11-22T12:21:49.043Z,17.77
2018-11-22T12:24:18.127Z,19.10
2018-11-22T12:27:06.525Z,18.63
2018-11-22T12:29:54.904Z,17.90
2018-11-22T12:33:02.329Z,17.33
2018-11-22T12:36:09.766Z,18.20
2018-11-22T12:38:58.165Z,19.63
2018-11-22T12:41:46.574Z,18.47
2018-11-22T12:44:28.106Z,19.50
2018-11-22T12:47:09.404Z,19.20
2018-11-22T12:49:38.360Z,18.43
2018-11-22T12:52:26.776Z,19.27
2018-11-22T12:54:56.003Z,19.80
2018-11-22T12:57:44.469Z,18.57
2018-11-22T13:00:15.210Z,20.37
2018-11-22T13:02:44.505Z,19.00
2018-11-22T13:05:14.933Z,19.23
2018-11-22T13:08:03.398Z,20.03
2018-11-22T13:10:51.847Z,19.03
2018-11-22T13:13:40.250Z,19.83
2018-11-22T13:16:28.694Z,18.87
2018-11-22T13:19:17.486Z,19.33
2018-11-22T13:22:06.027Z,19.80
2018-11-22T13:24:54.437Z,19.43
2018-11-22T13:27:43.091Z,19.20
2018-11-22T13:30:31.519Z,19.77
2018-11-22T13:33:00.654Z,18.33
2018-11-22T13:35:49.030Z,20.07
2018-11-22T13:38:37.322Z,19.67
2018-11-22T13:41:25.685Z,18.97
2018-11-22T13:44:14.009Z,19.67
2018-11-22T13:47:02.559Z,20.00
2018-11-22T13:49:50.993Z,23.43
2018-11-22T13:52:39.387Z,20.33
2018-11-22T13:55:27.866Z,18.57
2018-11-22T13:57:59.351Z,20.10
2018-11-22T14:00:47.680Z,19.47
2018-11-22T14:03:36.146Z,20.53
2018-11-22T14:06:24.519Z,20.47
2018-11-22T14:09:12.934Z,21.40
2018-11-22T14:12:01.392Z,20.33
2018-11-22T14:14:49.754Z,20.37
2018-11-22T14:18:00.080Z,21.30
2018-11-22T14:20:48.475Z,19.40
2018-11-22T14:23:36.963Z,19.23
2018-11-22T14:26:25.329Z,20.17
2018-11-22T14:29:13.705Z,21.00
2018-11-22T14:31:42.890Z,21.03
2018-11-22T14:34:31.316Z,20.57
2018-11-22T14:37:19.753Z,20.63
2018-11-22T14:40:09.364Z,19.30
2018-11-22T14:42:58.054Z,21.10
2018-11-22T14:45:27.674Z,20.33
2018-11-22T14:48:16.094Z,20.40
2018-11-22T14:51:23.888Z,19.93
2018-11-22T14:54:12.298Z,20.10
2018-11-22T14:57:00.794Z,20.63
2018-11-22T14:59:49.251Z,19.40
2018-11-22T15:02:37.914Z,19.10
2018-11-22T15:05:26.367Z,19.10
2018-11-22T15:08:14.698Z,18.90
2018-11-22T15:11:03.039Z,21.10
2018-11-22T15:13:32.116Z,19.67
2018-11-22T15:16:20.456Z,19.80
2018-11-22T15:19:08.872Z,19.17
2018-11-22T15:21:57.206Z,19.97
2018-11-22T15:24:45.844Z,19.30
2018-11-22T15:27:34.187Z,20.03
2018-11-22T15:30:03.661Z,19.67
2018-11-22T15:32:52.060Z,19.27
2018-11-22T15:35:40.501Z,19.80
2018-11-22T15:38:28.892Z,19.50
2018-11-22T15:43:59.353Z,19.47
2018-11-22T15:46:40.928Z,19.67
2018-11-22T15:49:22.769Z,21.23
2018-11-22T15:51:51.759Z,21.20
2018-11-22T15:54:47.221Z,19.80
2018-11-22T15:57:35.798Z,20.23
2018-11-22T16:00:46.510Z,20.23
2018-11-22T16:03:15.458Z,21.57
2018-11-22T16:06:03.936Z,20.50
2018-11-22T16:08:52.255Z,19.17
2018-11-22T16:11:40.612Z,20.07
2018-11-22T16:14:28.973Z,20.33
2018-11-22T16:17:17.348Z,19.47
2018-11-22T16:20:06.258Z,19.07
2018-11-22T16:22:54.754Z,20.27
2018-11-22T16:25:43.050Z,20.67
2018-11-22T16:28:31.520Z,20.40
2018-11-22T16:31:19.863Z,19.87
2018-11-22T16:34:08.261Z,20.73
2018-11-22T16:40:11.863Z,21.47
2018-11-22T16:43:01.670Z,21.53
2018-11-22T16:45:50.049Z,24.33
2018-11-22T16:48:38.451Z,21.87
2018-11-22T16:51:26.762Z,22.07
2018-11-22T16:54:15.153Z,20.63
2018-11-22T16:57:03.673Z,20.10
2018-11-22T16:59:52.051Z,21.60
2018-11-22T17:02:40.394Z,23.03
2018-11-22T17:05:29.082Z,20.90
2018-11-22T17:08:17.437Z,20.73
2018-11-22T17:11:05.856Z,21.13
2018-11-22T17:13:54.190Z,21.53
2018-11-22T17:16:42.602Z,22.17
2018-11-22T17:19:31.105Z,20.53
2018-11-22T17:22:19.527Z,22.13
2018-11-22T17:24:48.830Z,21.63
2018-11-22T17:31:10.940Z,22.00
2018-11-22T17:33:59.346Z,21.33
2018-11-22T17:36:47.706Z,21.73
2018-11-22T17:39:36.150Z,21.17
2018-11-22T17:42:24.583Z,19.77
2018-11-22T17:45:14.414Z,19.63
2018-11-22T17:48:03.160Z,21.37
2018-11-22T17:50:51.529Z,22.13
2018-11-22T17:53:39.955Z,21.30
2018-11-22T17:56:28.346Z,20.43
2018-11-22T17:59:16.692Z,20.10
2018-11-22T18:01:45.723Z,20.80
2018-11-22T18:04:14.806Z,20.37
2018-11-22T18:07:03.241Z,20.63
2018-11-22T18:09:51.616Z,21.17
2018-11-22T18:12:40.378Z,21.03
2018-11-22T18:15:29.974Z,20.23
2018-11-22T18:18:18.389Z,20.00
2018-11-22T18:21:06.863Z,19.07
2018-11-22T18:23:55.255Z,19.60
2018-11-22T18:26:24.301Z,20.20
2018-11-22T18:29:12.651Z,20.30
2018-11-22T18:32:01.053Z,20.77
2018-11-22T18:34:49.433Z,21.03
2018-11-22T18:37:40.283Z,20.83
2018-11-22T18:40:30.198Z,20.93
2018-11-22T18:43:11.597Z,20.07
2018-11-22T18:45:52.482Z,20.03
2018-11-22T18:48:34.260Z,22.60
2018-11-22T18:51:15.835Z,21.63
2018-11-22T18:53:57.538Z,20.10
2018-11-22T18:56:26.720Z,20.53
2018-11-22T18:59:15.078Z,20.43
2018-11-22T19:02:03.449Z,21.13
2018-11-22T19:04:51.820Z,21.17
2018-11-22T19:07:40.850Z,20.57
2018-11-22T19:10:48.281Z,20.87
2018-11-22T19:13:36.694Z,20.67
2018-11-22T19:16:25.070Z,22.70
2018-11-22T19:19:13.479Z,21.07
2018-11-22T19:22:01.830Z,20.70
2018-11-22T19:24:50.200Z,21.53
2018-11-22T19:27:38.551Z,21.07
2018-11-22T19:30:37.007Z,21.77
2018-11-22T19:33:20.329Z,22.83
2018-11-22T19:36:08.770Z,21.27
2018-11-22T19:38:57.061Z,22.07
2018-11-22T19:41:45.461Z,21.10
2018-11-22T19:44:33.815Z,21.17
2018-11-22T19:47:03.025Z,21.37
2018-11-22T19:49:51.350Z,21.97
2018-11-22T19:52:39.730Z,21.87
2018-11-22T19:55:29.319Z,23.83
2018-11-22T19:58:18.244Z,21.47
2018-11-22T20:00:47.343Z,23.03
2018-11-22T20:03:35.738Z,21.90
2018-11-22T20:06:24.167Z,22.23
2018-11-22T20:09:12.654Z,21.33
2018-11-22T20:11:41.709Z,21.20
2018-11-22T20:14:30.025Z,21.57
2018-11-22T20:17:18.402Z,21.03
2018-11-22T20:20:07.913Z,20.23
2018-11-22T20:22:56.722Z,21.00
2018-11-22T20:25:45.192Z,21.20
2018-11-22T20:28:33.639Z,21.30
2018-11-22T20:31:21.992Z,20.63
2018-11-22T20:34:10.537Z,21.10
2018-11-22T20:36:58.919Z,21.03
2018-11-22T20:39:47.298Z,21.73
2018-11-22T20:42:16.683Z,19.07
2018-11-22T20:45:06.108Z,21.63
2018-11-22T20:48:13.618Z,20.93
2018-11-22T20:51:02.122Z,21.80
2018-11-22T20:53:31.299Z,20.47
2018-11-22T20:56:20.006Z,20.60
2018-11-22T20:58:48.890Z,19.77
2018-11-22T21:01:37.338Z,20.60
2018-11-22T21:04:25.937Z,20.73
2018-11-22T21:06:55.688Z,19.83
2018-11-22T21:09:43.818Z,19.63
2018-11-22T21:12:12.832Z,20.37
2018-11-22T21:15:01.253Z,19.60
2018-11-22T21:17:30.528Z,20.50
2018-11-22T21:20:20.858Z,21.20
2018-11-22T21:22:49.989Z,19.83
2018-11-22T21:25:38.559Z,20.43
2018-11-22T21:28:26.920Z,18.90
2018-11-22T21:30:56.109Z,19.23
2018-11-22T21:33:25.299Z,19.17
2018-11-22T21:36:13.720Z,19.70
2018-11-22T21:39:02.444Z,19.53
2018-11-22T21:44:51.030Z,18.70
2018-11-22T21:47:31.960Z,18.97
2018-11-22T21:50:14.595Z,19.20
2018-11-22T21:52:56.210Z,18.93
2018-11-22T21:55:38.139Z,18.63
2018-11-22T21:58:07.087Z,18.50
2018-11-22T22:00:55.550Z,18.53
2018-11-22T22:03:43.978Z,19.40
2018-11-22T22:06:32.410Z,18.63
2018-11-22T22:09:20.895Z,19.20
2018-11-22T22:11:49.991Z,19.07
2018-11-22T22:14:38.290Z,18.57
2018-11-22T22:17:26.887Z,18.90
2018-11-22T22:20:19.811Z,19.00
2018-11-22T22:23:13.247Z,18.07
2018-11-22T22:25:56.590Z,19.60
2018-11-22T22:28:44.928Z,18.33
2018-11-22T22:31:33.266Z,17.97
2018-11-22T22:34:21.862Z,18.93
2018-11-22T22:37:10.218Z,17.57
2018-11-22T22:40:03.580Z,18.90
2018-11-22T22:42:47.891Z,18.20
2018-11-22T22:45:36.260Z,17.23
2018-11-22T22:48:24.706Z,18.03
2018-11-22T22:51:13.207Z,17.97
2018-11-22T22:54:01.628Z,18.87
2018-11-22T22:56:50.692Z,17.50
2018-11-22T22:59:39.058Z,18.13
2018-11-22T23:02:27.510Z,18.33
2018-11-22T23:05:15.968Z,17.97
2018-11-22T23:08:06.875Z,18.70
2018-11-22T23:10:55.212Z,18.47
2018-11-22T23:13:43.619Z,17.57
2018-11-22T23:16:32.045Z,17.40
2018-11-22T23:19:20.485Z,17.40
2018-11-22T23:22:08.909Z,17.43
2018-11-22T23:24:37.954Z,17.10
2018-11-22T23:27:26.291Z,17.43
2018-11-22T23:30:19.076Z,17.80
2018-11-22T23:33:08.812Z,16.57
2018-11-22T23:35:57.153Z,17.30
2018-11-22T23:38:45.544Z,16.87
2018-11-22T23:41:14.591Z,17.33
2018-11-22T23:44:03.093Z,17.63
2018-11-22T23:46:51.491Z,18.00
2018-11-22T23:49:39.892Z,16.87
2018-11-22T23:52:09.068Z,17.27
2018-11-22T23:54:57.556Z,17.47
2018-11-22T23:57:46.076Z,18.50
